createdAt,value
2019-03-13T00:00:03.716Z,18.70
2019-03-13T00:02:42.585Z,19.10
2019-03-13T00:05:19.225Z,19.20
2019-03-13T00:07:56.568Z,19.40
2019-03-13T00:10:33.105Z,19.40
2019-03-13T00:13:09.584Z,19.60
2019-03-13T00:15:49.545Z,19.50
2019-03-13T00:18:24.523Z,19.50
2019-03-13T00:21:01.168Z,19.70
2019-03-13T00:23:37.831Z,20.00
2019-03-13T00:26:15.152Z,20.10
2019-03-13T00:28:51.812Z,20.00
2019-03-13T00:31:28.381Z,20.30
2019-03-13T00:34:04.748Z,20.50
2019-03-13T00:36:41.742Z,20.70
2019-03-13T00:39:18.812Z,20.70
2019-03-13T00:41:56.057Z,20.90
2019-03-13T00:44:33.116Z,21.20
2019-03-13T00:47:09.833Z,21.50
2019-03-13T00:49:46.637Z,21.70
2019-03-13T00:52:22.875Z,21.80
2019-03-13T00:54:59.766Z,21.90
2019-03-13T00:57:36.561Z,22.20
2019-03-13T01:00:15.010Z,22.50
2019-03-13T01:02:51.633Z,22.70
2019-03-13T01:05:34.027Z,22.90
2019-03-13T01:08:10.919Z,23.10
2019-03-13T01:10:47.482Z,23.30
2019-03-13T01:13:24.336Z,23.50
2019-03-13T01:16:01.552Z,23.80
2019-03-13T01:18:38.243Z,23.90
2019-03-13T01:21:14.937Z,24.10
2019-03-13T01:23:52.403Z,24.30
2019-03-13T01:26:29.370Z,24.50
2019-03-13T01:29:05.612Z,25.00
2019-03-13T01:32:08.815Z,25.20
2019-03-13T01:34:50.894Z,25.20
2019-03-13T01:37:27.938Z,25.30
2019-03-13T01:40:04.350Z,25.30
2019-03-13T01:42:42.435Z,25.50
2019-03-13T01:45:19.102Z,25.50
2019-03-13T01:47:56.793Z,25.80
2019-03-13T01:50:33.547Z,26.00
2019-03-13T01:53:10.361Z,26.10
2019-03-13T01:55:48.625Z,26.30
2019-03-13T01:58:25.598Z,26.30
2019-03-13T02:01:02.606Z,26.50
2019-03-13T02:03:39.856Z,26.60
2019-03-13T02:06:16.641Z,26.70
2019-03-13T02:08:53.922Z,26.90
2019-03-13T02:11:31.044Z,27.00
2019-03-13T02:14:07.979Z,27.30
2019-03-13T02:16:44.875Z,27.40
2019-03-13T02:19:22.075Z,27.60
2019-03-13T02:21:58.651Z,27.80
2019-03-13T02:24:35.404Z,28.10
2019-03-13T02:27:12.108Z,28.10
2019-03-13T02:29:49.742Z,28.30
2019-03-13T02:32:26.675Z,28.60
2019-03-13T02:35:03.580Z,28.70
2019-03-13T02:37:41.345Z,28.80
2019-03-13T02:40:18.299Z,28.80
2019-03-13T02:42:54.986Z,28.80
2019-03-13T02:45:32.216Z,28.80
2019-03-13T02:48:08.926Z,29.00
2019-03-13T02:50:45.435Z,29.50
2019-03-13T02:53:22.104Z,29.50
2019-03-13T02:55:58.607Z,29.40
2019-03-13T02:58:35.356Z,29.50
2019-03-13T03:01:29.535Z,29.50
2019-03-13T03:04:08.765Z,29.50
2019-03-13T03:06:45.577Z,29.70
2019-03-13T03:09:22.205Z,29.80
2019-03-13T03:11:59.010Z,29.80
2019-03-13T03:14:36.115Z,29.90
2019-03-13T03:17:12.807Z,30.10
2019-03-13T03:19:49.594Z,30.20
2019-03-13T03:22:26.357Z,30.50
2019-03-13T03:25:03.505Z,30.50
2019-03-13T03:27:39.724Z,30.40
2019-03-13T03:30:19.223Z,30.40
2019-03-13T03:32:55.804Z,30.50
2019-03-13T03:35:32.603Z,30.60
2019-03-13T03:38:11.690Z,30.70
2019-03-13T03:40:48.249Z,30.90
2019-03-13T03:43:39.528Z,30.90
2019-03-13T03:46:02.507Z,31.10
2019-03-13T03:48:39.729Z,31.20
2019-03-13T03:51:17.633Z,31.20
2019-03-13T03:53:54.043Z,31.20
2019-03-13T03:56:31.094Z,31.30
2019-03-13T03:59:07.842Z,31.20
2019-03-13T04:01:44.808Z,31.40
2019-03-13T04:04:21.115Z,31.60
2019-03-13T04:06:59.611Z,31.70
2019-03-13T04:09:35.901Z,31.80
2019-03-13T04:12:14.054Z,31.90
2019-03-13T04:14:50.789Z,32.20
2019-03-13T04:17:27.527Z,32.40
2019-03-13T04:20:04.038Z,32.30
2019-03-13T04:22:41.723Z,32.40
2019-03-13T04:25:35.522Z,32.50
2019-03-13T04:28:13.080Z,32.80
2019-03-13T04:30:50.331Z,32.80
2019-03-13T04:33:28.377Z,32.90
2019-03-13T04:36:05.217Z,32.90
2019-03-13T04:38:41.779Z,32.90
2019-03-13T04:41:18.258Z,33.10
2019-03-13T04:43:56.463Z,33.30
2019-03-13T04:46:32.994Z,33.40
2019-03-13T04:49:10.574Z,33.40
2019-03-13T04:51:47.276Z,33.40
2019-03-13T04:54:24.457Z,33.40
2019-03-13T04:57:01.162Z,33.60
2019-03-13T04:59:37.759Z,33.70
2019-03-13T05:02:14.296Z,33.70
2019-03-13T05:04:51.498Z,33.80
2019-03-13T05:07:28.172Z,33.90
2019-03-13T05:10:04.544Z,34.00
2019-03-13T05:12:41.233Z,34.00
2019-03-13T05:15:17.863Z,34.20
2019-03-13T05:17:58.380Z,34.30
2019-03-13T05:20:35.166Z,34.60
2019-03-13T05:23:11.772Z,34.60
2019-03-13T05:25:52.126Z,34.50
2019-03-13T05:28:30.300Z,34.50
2019-03-13T05:31:07.194Z,34.60
2019-03-13T05:33:43.948Z,34.80
2019-03-13T05:36:20.834Z,34.80
2019-03-13T05:38:57.776Z,34.70
2019-03-13T05:41:34.849Z,34.80
2019-03-13T05:44:12.159Z,35.00
2019-03-13T05:46:49.343Z,35.10
2019-03-13T05:49:25.994Z,35.30
2019-03-13T05:52:02.876Z,35.20
2019-03-13T05:54:40.290Z,35.30
2019-03-13T05:57:16.964Z,35.30
2019-03-13T05:59:53.791Z,35.50
2019-03-13T06:02:30.842Z,35.50
2019-03-13T06:05:08.086Z,35.50
2019-03-13T06:07:45.527Z,35.70
2019-03-13T06:10:21.856Z,35.60
2019-03-13T06:12:58.969Z,35.70
2019-03-13T06:15:36.514Z,35.80
2019-03-13T06:18:13.673Z,35.90
2019-03-13T06:20:50.315Z,35.70
2019-03-13T06:23:27.490Z,35.80
2019-03-13T06:26:04.155Z,36.00
2019-03-13T06:28:42.473Z,36.20
2019-03-13T06:31:19.551Z,36.30
2019-03-13T06:33:57.125Z,36.20
2019-03-13T06:36:33.590Z,36.30
2019-03-13T06:39:11.011Z,36.40
2019-03-13T06:41:47.582Z,36.60
2019-03-13T06:44:24.419Z,36.50
2019-03-13T06:47:01.661Z,36.40
2019-03-13T06:49:38.301Z,36.00
2019-03-13T06:52:14.391Z,36.10
2019-03-13T06:54:51.940Z,36.20
2019-03-13T07:01:39.589Z,35.50
2019-03-13T07:04:46.972Z,31.70
2019-03-13T07:07:32.812Z,30.10
2019-03-13T07:10:17.659Z,29.50
2019-03-13T07:13:12.016Z,29.30
2019-03-13T07:16:12.962Z,29.30
2019-03-13T07:19:10.716Z,29.30
2019-03-13T07:22:14.530Z,29.30
2019-03-13T07:25:14.857Z,29.30
2019-03-13T07:28:09.770Z,29.30
2019-03-13T07:31:01.303Z,29.30
2019-03-13T07:33:54.959Z,29.40
2019-03-13T07:36:49.671Z,29.80
2019-03-13T07:39:48.413Z,30.00
2019-03-13T07:42:52.356Z,30.10
2019-03-13T07:45:42.276Z,30.20
2019-03-13T07:48:35.916Z,30.20
2019-03-13T07:51:30.766Z,30.20
2019-03-13T07:54:22.469Z,30.20
2019-03-13T07:57:24.420Z,30.30
2019-03-13T08:00:17.882Z,30.40
2019-03-13T08:03:12.861Z,30.40
2019-03-13T08:06:16.385Z,30.50
2019-03-13T08:09:09.671Z,30.50
2019-03-13T08:12:13.356Z,30.50
2019-03-13T08:15:06.948Z,30.60
2019-03-13T08:18:02.065Z,30.60
2019-03-13T08:21:02.881Z,30.50
2019-03-13T08:23:56.048Z,30.60
2019-03-13T08:26:40.571Z,30.60
2019-03-13T08:29:35.083Z,30.60
2019-03-13T08:32:28.757Z,30.70
2019-03-13T08:35:26.131Z,30.70
2019-03-13T08:38:08.344Z,30.70
2019-03-13T08:40:56.781Z,30.70
2019-03-13T08:43:49.846Z,30.70
2019-03-13T08:46:52.023Z,30.80
2019-03-13T08:49:52.841Z,30.80
2019-03-13T08:52:47.970Z,30.80
2019-03-13T08:55:42.802Z,30.90
2019-03-13T08:58:37.036Z,30.80
2019-03-13T09:01:29.824Z,30.90
2019-03-13T09:04:25.099Z,30.90
2019-03-13T09:07:22.778Z,30.90
2019-03-13T09:10:07.626Z,30.90
2019-03-13T09:12:53.916Z,30.90
2019-03-13T09:15:39.193Z,30.90
2019-03-13T09:18:24.619Z,31.00
2019-03-13T09:21:19.300Z,31.00
2019-03-13T09:28:20.272Z,32.90
2019-03-13T09:31:07.532Z,35.00
2019-03-13T09:33:52.744Z,35.50
2019-03-13T09:36:47.811Z,35.50
2019-03-13T09:39:42.346Z,35.60
2019-03-13T09:42:47.240Z,35.70
2019-03-13T09:45:55.008Z,35.70
2019-03-13T09:48:40.406Z,35.60
2019-03-13T09:51:28.953Z,35.50
2019-03-13T09:54:20.222Z,35.30
2019-03-13T09:57:24.153Z,35.00
2019-03-13T10:00:22.061Z,34.90
2019-03-13T10:03:19.808Z,34.90
2019-03-13T10:06:05.781Z,34.70
2019-03-13T10:09:09.612Z,34.60
2019-03-13T10:12:08.008Z,34.50
2019-03-13T10:14:55.476Z,34.70
2019-03-13T10:17:43.442Z,34.70
2019-03-13T10:20:47.513Z,34.20
2019-03-13T10:23:49.857Z,34.30
2019-03-13T10:26:47.309Z,34.30
2019-03-13T10:29:33.818Z,34.00
2019-03-13T10:32:26.476Z,33.50
2019-03-13T10:35:23.705Z,33.30
2019-03-13T10:38:16.875Z,33.20
2019-03-13T10:41:03.831Z,32.90
2019-03-13T10:44:01.393Z,32.70
2019-03-13T10:46:47.192Z,32.50
2019-03-13T10:49:44.330Z,32.30
2019-03-13T10:52:42.383Z,32.10
2019-03-13T10:55:26.323Z,31.90
2019-03-13T10:58:36.478Z,31.70
2019-03-13T11:01:29.152Z,31.60
2019-03-13T11:04:22.936Z,31.70
2019-03-13T11:07:23.746Z,31.40
2019-03-13T11:10:17.431Z,31.30
2019-03-13T11:13:07.936Z,31.20
2019-03-13T11:16:21.861Z,31.00
2019-03-13T11:19:13.832Z,30.80
2019-03-13T11:22:06.008Z,30.60
2019-03-13T11:24:49.351Z,30.30
2019-03-13T11:27:44.590Z,30.10
2019-03-13T11:30:49.238Z,30.00
2019-03-13T11:34:03.158Z,29.80
2019-03-13T11:37:01.394Z,29.70
2019-03-13T11:39:49.982Z,29.50
2019-03-13T11:42:42.630Z,29.50
2019-03-13T11:45:44.092Z,29.30
2019-03-13T11:48:44.843Z,29.20
2019-03-13T11:51:37.734Z,29.00
2019-03-13T11:54:34.806Z,28.90
2019-03-13T11:57:21.906Z,28.70
2019-03-13T12:00:08.673Z,28.60
2019-03-13T12:02:52.962Z,28.60
2019-03-13T12:05:37.681Z,28.50
2019-03-13T12:08:31.630Z,28.40
2019-03-13T12:11:15.103Z,28.30
2019-03-13T12:14:10.666Z,28.20
2019-03-13T12:17:14.937Z,28.20
2019-03-13T12:20:09.750Z,28.20
2019-03-13T12:23:15.985Z,28.10
2019-03-13T12:26:10.815Z,28.00
2019-03-13T12:29:04.064Z,28.00
2019-03-13T12:31:58.759Z,27.90
2019-03-13T12:34:51.735Z,27.90
2019-03-13T12:37:45.226Z,27.80
2019-03-13T12:40:56.062Z,27.70
2019-03-13T12:43:51.475Z,27.80
2019-03-13T12:46:35.498Z,27.90
2019-03-13T12:49:23.624Z,28.10
2019-03-13T12:52:31.894Z,28.10
2019-03-13T12:55:26.124Z,28.20
2019-03-13T12:58:20.236Z,28.20
2019-03-13T13:01:21.002Z,28.00
2019-03-13T13:04:15.486Z,28.00
2019-03-13T13:07:07.660Z,27.90
2019-03-13T13:10:13.577Z,28.00
2019-03-13T13:13:16.670Z,27.90
2019-03-13T13:16:12.096Z,27.90
2019-03-13T13:18:58.203Z,28.00
2019-03-13T13:21:35.565Z,27.90
2019-03-13T13:24:11.615Z,28.00
2019-03-13T13:26:50.383Z,28.30
2019-03-13T13:29:27.057Z,28.30
2019-03-13T13:32:03.812Z,28.20
2019-03-13T13:34:39.951Z,28.50
2019-03-13T13:37:16.869Z,28.50
2019-03-13T13:39:53.043Z,29.00
2019-03-13T13:42:29.565Z,29.30
2019-03-13T13:45:06.634Z,29.40
2019-03-13T13:47:43.302Z,29.30
2019-03-13T13:50:19.697Z,29.30
2019-03-13T13:52:56.776Z,29.20
2019-03-13T13:55:33.656Z,29.30
2019-03-13T13:58:10.540Z,29.20
2019-03-13T14:00:47.085Z,28.60
2019-03-13T14:03:24.715Z,28.40
2019-03-13T14:06:01.359Z,28.50
2019-03-13T14:08:38.235Z,28.70
2019-03-13T14:11:14.726Z,28.50
2019-03-13T14:13:51.215Z,28.40
2019-03-13T14:16:27.928Z,28.40
2019-03-13T14:19:04.622Z,28.30
2019-03-13T14:21:41.476Z,28.40
2019-03-13T14:24:17.999Z,28.60
2019-03-13T14:26:55.087Z,28.80
2019-03-13T14:29:31.518Z,28.80
2019-03-13T14:32:08.242Z,28.70
2019-03-13T14:34:45.757Z,28.90
2019-03-13T14:37:22.394Z,28.60
2019-03-13T14:40:16.853Z,28.40
2019-03-13T14:42:53.643Z,28.60
2019-03-13T14:45:30.408Z,28.80
2019-03-13T14:48:07.241Z,29.00
2019-03-13T14:50:43.921Z,29.10
2019-03-13T14:53:20.806Z,28.60
2019-03-13T14:55:57.977Z,28.40
2019-03-13T14:58:34.717Z,28.50
2019-03-13T15:01:11.619Z,28.40
2019-03-13T15:03:47.801Z,28.30
2019-03-13T15:06:24.660Z,28.40
2019-03-13T15:09:01.055Z,28.30
2019-03-13T15:11:39.552Z,27.90
2019-03-13T15:14:16.370Z,27.70
2019-03-13T15:16:53.496Z,27.40
2019-03-13T15:19:30.680Z,27.20
2019-03-13T15:22:07.853Z,27.00
2019-03-13T15:24:44.659Z,26.90
2019-03-13T15:27:21.074Z,26.70
2019-03-13T15:29:58.506Z,26.60
2019-03-13T15:32:35.176Z,26.20
2019-03-13T15:35:12.210Z,26.20
2019-03-13T15:37:48.843Z,26.10
2019-03-13T15:40:26.856Z,26.00
2019-03-13T15:43:06.507Z,26.10
2019-03-13T15:45:43.418Z,26.00
2019-03-13T15:48:19.794Z,25.90
2019-03-13T15:50:57.179Z,26.00
2019-03-13T15:53:33.875Z,25.50
2019-03-13T15:56:10.900Z,25.30
2019-03-13T15:58:47.789Z,25.30
2019-03-13T16:01:24.815Z,25.40
2019-03-13T16:04:01.517Z,25.40
2019-03-13T16:06:38.121Z,25.20
2019-03-13T16:09:15.058Z,25.30
2019-03-13T16:11:52.050Z,25.20
2019-03-13T16:14:29.164Z,25.30
2019-03-13T16:17:06.106Z,25.30
2019-03-13T16:19:42.419Z,25.10
2019-03-13T16:22:20.233Z,24.90
2019-03-13T16:24:56.391Z,24.40
2019-03-13T16:27:32.973Z,24.10
2019-03-13T16:30:11.428Z,24.60
2019-03-13T16:32:48.128Z,25.00
2019-03-13T16:35:26.463Z,25.50
2019-03-13T16:38:02.783Z,26.00
2019-03-13T16:40:39.334Z,26.10
2019-03-13T16:43:16.046Z,25.50
2019-03-13T16:45:52.629Z,25.50
2019-03-13T16:48:29.589Z,25.70
2019-03-13T16:51:07.248Z,25.50
2019-03-13T16:53:44.387Z,25.40
2019-03-13T16:56:21.261Z,25.50
2019-03-13T16:58:58.374Z,25.60
2019-03-13T17:01:35.093Z,25.30
2019-03-13T17:04:12.376Z,25.20
2019-03-13T17:06:48.851Z,25.40
2019-03-13T17:09:25.179Z,25.40
2019-03-13T17:12:01.866Z,25.10
2019-03-13T17:14:38.739Z,25.00
2019-03-13T17:17:15.305Z,25.10
2019-03-13T17:19:53.142Z,24.90
2019-03-13T17:22:30.013Z,24.70
2019-03-13T17:25:07.455Z,24.70
2019-03-13T17:27:44.966Z,24.20
2019-03-13T17:30:26.009Z,24.20
2019-03-13T17:33:03.403Z,24.20
2019-03-13T17:35:40.453Z,24.20
2019-03-13T17:38:17.144Z,24.30
2019-03-13T17:40:53.846Z,24.00
2019-03-13T17:43:39.012Z,23.80
2019-03-13T17:46:09.171Z,23.80
2019-03-13T17:48:46.207Z,23.80
2019-03-13T17:51:22.784Z,23.60
2019-03-13T17:53:59.362Z,23.70
2019-03-13T17:56:36.280Z,23.40
2019-03-13T17:59:13.486Z,23.30
2019-03-13T18:01:50.477Z,23.30
2019-03-13T18:04:27.187Z,23.40
2019-03-13T18:07:04.023Z,23.40
2019-03-13T18:09:40.451Z,23.30
2019-03-13T18:12:17.686Z,23.20
2019-03-13T18:14:54.405Z,23.10
2019-03-13T18:17:31.372Z,22.60
2019-03-13T18:20:09.492Z,22.80
2019-03-13T18:22:46.295Z,23.10
2019-03-13T18:25:22.688Z,22.70
2019-03-13T18:28:00.043Z,22.60
2019-03-13T18:30:36.683Z,22.70
2019-03-13T18:33:14.560Z,22.80
2019-03-13T18:35:51.355Z,22.80
2019-03-13T18:38:27.603Z,22.50
2019-03-13T18:41:04.546Z,22.30
2019-03-13T18:43:41.132Z,22.40
2019-03-13T18:46:17.978Z,22.50
2019-03-13T18:48:54.397Z,22.20
2019-03-13T18:51:31.328Z,22.40
2019-03-13T18:54:07.981Z,22.60
2019-03-13T18:56:45.000Z,22.40
2019-03-13T18:59:22.765Z,22.30
2019-03-13T19:01:59.416Z,22.20
2019-03-13T19:04:36.246Z,22.00
2019-03-13T19:07:12.960Z,21.60
2019-03-13T19:09:50.018Z,21.60
2019-03-13T19:12:26.881Z,21.80
2019-03-13T19:15:03.847Z,21.90
2019-03-13T19:17:40.783Z,22.00
2019-03-13T19:20:18.259Z,22.10
2019-03-13T19:22:56.158Z,21.80
2019-03-13T19:25:33.255Z,21.90
2019-03-13T19:28:10.030Z,22.00
2019-03-13T19:30:47.267Z,22.30
2019-03-13T19:33:25.199Z,22.40
2019-03-13T19:36:02.608Z,22.40
2019-03-13T19:38:41.235Z,22.40
2019-03-13T19:41:17.977Z,21.90
2019-03-13T19:43:54.562Z,21.70
2019-03-13T19:46:32.272Z,21.60
2019-03-13T19:49:09.095Z,21.70
2019-03-13T19:51:45.718Z,21.70
2019-03-13T19:54:22.677Z,21.80
2019-03-13T19:56:59.790Z,21.60
2019-03-13T19:59:37.227Z,21.30
2019-03-13T20:02:14.709Z,21.40
2019-03-13T20:04:51.736Z,21.40
2019-03-13T20:07:28.232Z,21.50
2019-03-13T20:10:06.249Z,21.40
2019-03-13T20:12:42.847Z,21.40
2019-03-13T20:15:21.089Z,21.10
2019-03-13T20:17:58.406Z,21.40
2019-03-13T20:20:34.614Z,21.40
2019-03-13T20:23:11.937Z,21.30
2019-03-13T20:25:49.289Z,21.30
2019-03-13T20:28:26.598Z,21.20
2019-03-13T20:31:03.416Z,21.00
2019-03-13T20:33:40.762Z,21.10
2019-03-13T20:36:17.658Z,21.10
2019-03-13T20:38:54.210Z,20.90
2019-03-13T20:41:31.178Z,20.90
2019-03-13T20:44:08.001Z,20.90
2019-03-13T20:46:45.095Z,21.00
2019-03-13T20:49:22.051Z,21.00
2019-03-13T20:51:58.786Z,20.70
2019-03-13T20:54:35.751Z,20.90
2019-03-13T20:57:12.494Z,21.00
2019-03-13T20:59:49.490Z,21.00
2019-03-13T21:02:26.618Z,21.10
2019-03-13T21:05:04.045Z,21.10
2019-03-13T21:07:41.907Z,21.20
2019-03-13T21:10:19.155Z,21.00
2019-03-13T21:12:56.782Z,20.80
2019-03-13T21:15:34.172Z,21.00
2019-03-13T21:18:10.958Z,21.00
2019-03-13T21:20:47.618Z,20.60
2019-03-13T21:23:24.359Z,20.90
2019-03-13T21:26:02.210Z,20.90
2019-03-13T21:28:39.275Z,20.70
2019-03-13T21:31:16.174Z,20.70
2019-03-13T21:33:52.965Z,20.70
2019-03-13T21:36:30.277Z,20.60
2019-03-13T21:39:08.019Z,20.30
2019-03-13T21:41:46.139Z,20.20
2019-03-13T21:44:22.841Z,20.60
2019-03-13T21:46:59.682Z,20.70
2019-03-13T21:49:36.154Z,20.70
2019-03-13T21:52:12.597Z,20.60
2019-03-13T21:54:51.953Z,20.80
2019-03-13T21:57:27.455Z,20.90
2019-03-13T22:00:03.784Z,20.70
2019-03-13T22:02:42.177Z,20.40
2019-03-13T22:05:25.679Z,20.40
2019-03-13T22:07:58.131Z,20.40
2019-03-13T22:10:34.805Z,20.60
2019-03-13T22:13:12.579Z,20.70
2019-03-13T22:15:49.165Z,20.60
2019-03-13T22:18:25.660Z,20.40
2019-03-13T22:21:02.357Z,20.50
2019-03-13T22:23:39.114Z,20.70
2019-03-13T22:26:16.089Z,20.70
2019-03-13T22:28:53.970Z,20.60
2019-03-13T22:31:30.454Z,20.60
2019-03-13T22:34:07.669Z,20.40
2019-03-13T22:36:44.706Z,20.20
2019-03-13T22:39:21.544Z,20.20
2019-03-13T22:41:58.364Z,20.20
2019-03-13T22:44:35.479Z,20.10
2019-03-13T22:47:12.295Z,20.40
2019-03-13T22:49:49.492Z,20.50
2019-03-13T22:52:25.973Z,20.50
2019-03-13T22:55:02.686Z,20.50
2019-03-13T22:57:39.455Z,20.10
2019-03-13T23:00:34.188Z,20.20
2019-03-13T23:03:11.880Z,20.10
2019-03-13T23:05:49.943Z,20.10
2019-03-13T23:08:26.599Z,20.20
2019-03-13T23:11:02.978Z,20.10
2019-03-13T23:13:39.906Z,19.90
2019-03-13T23:16:18.691Z,20.00
2019-03-13T23:18:55.869Z,20.10
2019-03-13T23:21:38.838Z,20.30
2019-03-13T23:24:15.629Z,20.50
2019-03-13T23:26:52.329Z,20.30
2019-03-13T23:29:29.226Z,20.00
2019-03-13T23:32:06.197Z,20.00
2019-03-13T23:34:42.792Z,20.00
2019-03-13T23:37:19.912Z,20.20
2019-03-13T23:39:56.479Z,19.90
2019-03-13T23:42:33.452Z,20.00
2019-03-13T23:45:10.501Z,20.00
2019-03-13T23:47:47.187Z,20.10
2019-03-13T23:50:25.042Z,20.10
2019-03-13T23:53:02.310Z,20.40
2019-03-13T23:55:39.199Z,20.30
2019-03-13T23:58:16.012Z,20.00
